Weather observations for the past three days for
Ortonville, Ortonville Muncipal-Martinson Field Airport
Imperial (Metric)
Date Time (cdt) Wind (mph) Vis. (mi.) Weather Sky Cond. Temperature (ºF) Relative Humidity Wind Chill (°F) Heat Index (°F) Pressure Precipitation (in)
Air Dwpt 6 hour altimeter (in) sea level (mb) 1 hr 3 hr 6 hr
Max. Min.
04 14:15 NW 25 G 31 10.00 Partly Cloudy and Breezy SCT050 51.8 30.2 44% 29.69 0.0
04 13:55 NW 22 G 32 10.00 Mostly Cloudy and Breezy BKN050 51.8 30.2 44% 29.69 0.0
04 13:35 NW 25 G 30 10.00 Mostly Cloudy and Breezy BKN050 51.8 32 47% 29.68 0.0
04 13:15 NW 23 G 35 10.00 Partly Cloudy and Breezy SCT050 51.8 30.2 44% 29.66 0.0
04 12:55 NW 22 G 33 10.00 Partly Cloudy and Breezy SCT050 53.6 33.8 47% 29.65 0.0
04 12:35 NW 29 G 37 10.00 Fair and Windy CLR 53.6 32 44% 29.64 0.0
04 12:15 NW 22 G 35 10.00 Fair and Breezy CLR 51.8 33.8 50% 29.64 0.0
04 11:55 NW 18 G 30 10.00 Fair CLR 51.8 33.8 50% 29.64 0.0
04 11:35 NW 17 G 29 10.00 Partly Cloudy SCT100 51.8 33.8 50% 29.64 0.0
04 11:15 NW 21 G 28 10.00 Fair and Breezy CLR 51.8 33.8 50% 29.63 0.0
04 10:55 NW 15 G 33 10.00 Fair CLR 51.8 33.8 50% 29.63 0.0
04 10:35 NW 22 G 31 10.00 Partly Cloudy and Breezy SCT100 51.8 35.6 54% 29.62 0.0
04 10:15 NW 21 G 28 10.00 Fair and Breezy CLR 50 33.8 54% 44 29.62 0.0
04 09:55 NW 26 G 35 10.00 Fair and Windy CLR 51.8 33.8 50% 29.61 0.0
04 09:35 NW 22 G 31 10.00 Fair and Breezy CLR 53.6 33.8 47% 29.6 0.0
04 09:15 NW 21 G 31 10.00 Fair and Breezy CLR 53.6 35.6 51% 29.59 0.0
04 08:55 NW 24 G 33 10.00 Fair and Breezy CLR 51.8 35.6 54% 29.58 0.0
04 08:35 NW 20 G 23 10.00 Fair CLR 53.6 39.2 58% 29.57 0.0
04 08:15 NW 13 G 17 10.00 Fair CLR 53.6 39.2 58% 29.56 0.0
04 07:55 W 9 10.00 Fair CLR 51.8 39.2 62% 29.56 0.0
04 07:35 Calm 10.00 Fair CLR 51.8 39.2 62% 29.55 0.0
04 07:15 NW 9 10.00 Fair CLR 50 39.2 67% 47 29.55 0.0
04 06:55 W 9 10.00 Fair CLR 50 41 71% 47 29.55 0.0
04 06:35 W 10 10.00 Fair CLR 50 41 71% 46 29.53 0.0
04 06:15 NW 9 10.00 Fair CLR 51.8 41 67% 29.53 0.0
04 05:55 NW 10 10.00 Fair CLR 51.8 41 67% 29.51 0.0
04 05:35 NW 10 G 16 10.00 Fair CLR 51.8 41 67% 29.51 0.0
04 05:15 NW 14 G 18 10.00 Fair CLR 51.8 41 67% 29.51 0.0
04 04:55 NW 12 G 18 10.00 Fair CLR 53.6 39.2 58% 29.49 0.0
04 04:35 N 16 G 20 10.00 Fair CLR 53.6 41 63% 29.49 0.0
04 04:15 W 23 G 31 10.00 Fair and Breezy CLR 60.8 41 48% 29.47 0.0
04 03:55 W 23 G 31 10.00 Partly Cloudy and Breezy SCT085 SCT110 62.6 37.4 39% 29.47 0.0
04 03:35 W 17 G 25 10.00 Fair CLR 62.6 35.6 37% 29.44 0.0
04 03:15 SW 18 G 30 10.00 Fair CLR 62.6 35.6 37% 29.42 0.0
04 02:55 SW 17 G 25 10.00 Fair CLR 60.8 35.6 39% 29.43 0.0
04 02:35 SW 18 G 26 10.00 Fair CLR 60.8 35.6 39% 29.44 0.0
04 02:15 SW 12 G 21 10.00 Fair CLR 60.8 35.6 39% 29.45 0.0
04 01:55 SW 14 G 23 10.00 Fair CLR 60.8 33.8 36% 29.47 0.0
04 01:35 SW 10 G 17 10.00 Fair CLR 60.8 33.8 36% 29.48 0.0
04 01:15 SW 3 10.00 Fair CLR 60.8 33.8 36% 29.49 0.0
04 00:55 SW 3 10.00 Fair CLR 59 32 36% 29.5 0.0
04 00:35 Calm 10.00 Fair CLR 57.2 30.2 36% 29.51 0.0
04 00:15 Calm 10.00 Fair CLR 55.4 33.8 44% 29.53 0.0
03 23:55 Calm 10.00 Fair CLR 55.4 33.8 44% 29.54 0.0
03 23:35 Calm 10.00 Fair CLR 55.4 33.8 44% 29.55 0.0
03 23:15 Calm 10.00 Fair CLR 57.2 33.8 41% 29.56 0.0
03 22:55 SW 3 10.00 Fair CLR 57.2 32 39% 29.57 0.0
03 22:35 Calm 10.00 Fair CLR 55.4 33.8 44% 29.59 0.0
03 22:15 Calm 10.00 Fair CLR 57.2 32 39% 29.6 0.0
03 21:55 Calm 10.00 Fair CLR 59 32 36% 29.61 0.0
03 21:35 Calm 10.00 Fair CLR 60.8 32 34% 29.62 0.0
03 21:15 Calm 10.00 Fair CLR 62.6 32 32% 29.63 0.0
03 20:55 Calm 10.00 Fair CLR 62.6 30.2 30% 29.63 0.0
03 20:35 Calm 7.00 Fair CLR 64.4 30.2 28% 29.64 0.0
03 20:15 Calm 10.00 Fair CLR 66.2 30.2 26% 29.65 0.0
03 19:55 Calm 10.00 Fair CLR 68 30.2 24% 29.65 0.0
03 19:35 W 6 G 17 10.00 Fair CLR 69.8 28.4 21% 29.66 0.0
03 19:15 W 3 10.00 Fair CLR 69.8 30.2 23% 29.67 0.0
03 18:55 Calm 10.00 Fair CLR 69.8 30.2 23% 29.67 0.0
03 18:35 W 8 10.00 Fair CLR 69.8 30.2 23% 29.68 0.0
03 18:15 Calm 10.00 Fair CLR 69.8 30.2 23% 29.69 0.0
03 17:55 W 13 G 18 10.00 Fair CLR 69.8 28.4 21% 29.69 0.0
03 17:35 W 5 G 16 10.00 Fair CLR 69.8 28.4 21% 29.7 0.0
03 17:15 NW 13 10.00 Fair CLR 69.8 30.2 23% 29.71 0.0
03 16:55 W 12 G 16 10.00 Fair CLR 69.8 28.4 21% 29.71 0.0
03 16:35 NW 8 10.00 Fair CLR 69.8 28.4 21% 29.72 0.0
03 16:15 Calm 10.00 Fair CLR 69.8 30.2 23% 29.74 0.0
03 15:55 Calm 10.00 Fair CLR 68 30.2 24% 29.75 0.0
03 15:35 W 3 G 18 10.00 Fair CLR 69.8 30.2 23% 29.76 0.0
03 15:15 NW 13 G 16 10.00 Fair CLR 68 33.8 28% 29.76 0.0
03 14:55 NW 10 G 17 7.00 Fair CLR 66.2 30.2 26% 29.77 0.0
03 14:35 NW 8 G 16 10.00 Fair CLR 66.2 30.2 26% 29.78 0.0
03 14:15 NW 3 10.00 Fair CLR 66.2 30.2 26% 29.79 0.0
03 13:55 NW 5 10.00 Fair CLR 64.4 30.2 28% 29.8 0.0
03 13:35 NW 12 10.00 Fair CLR 64.4 30.2 28% 29.82 0.0
03 13:15 NW 14 G 21 10.00 Fair CLR 64.4 33.8 32% 29.83 0.0
03 12:55 NW 6 10.00 Fair CLR 62.6 33.8 34% 29.84 0.0
03 12:35 NW 6 G 16 10.00 Fair CLR 62.6 33.8 34% 29.84 0.0
03 12:15 NW 13 G 16 10.00 Fair CLR 60.8 33.8 36% 29.85 0.0
03 11:55 NW 6 G 17 10.00 Fair CLR 60.8 33.8 36% 29.85 0.0
03 11:35 N 12 G 16 10.00 Fair CLR 60.8 35.6 39% 29.86 0.0
03 11:15 N 13 G 16 10.00 Fair CLR 60.8 35.6 39% 29.86 0.0
03 10:55 NW 5 10.00 Fair CLR 59 37.4 45% 29.86 0.0
03 10:35 NW 10 G 17 10.00 Fair CLR 57.2 37.4 48% 29.86 0.0
03 10:15 NW 12 G 18 10.00 Fair CLR 55.4 37.4 51% 29.85 0.0
03 09:55 NW 12 10.00 Fair CLR 53.6 37.4 54% 29.86 0.0
03 09:35 NW 15 10.00 Fair CLR 51.8 35.6 54% 29.86 0.0
03 09:15 NW 14 G 18 10.00 Fair CLR 51.8 37.4 58% 29.86 0.0
03 08:55 NW 13 10.00 Fair CLR 51.8 37.4 58% 29.86 0.0
03 08:35 NW 15 10.00 Fair CLR 48.2 37.4 66% 43 29.86 0.0
03 08:15 NW 12 G 20 10.00 Fair CLR 48.2 37.4 66% 44 29.86 0.0
03 07:55 NW 14 G 18 10.00 Fair CLR 46.4 37.4 71% 41 29.85 0.0
03 07:35 NW 10 G 18 10.00 Fair CLR 46.4 39.2 76% 42 29.84 0.0
03 07:15 NW 13 G 17 10.00 Fair CLR 46.4 39.2 76% 41 29.83 0.0
03 06:55 NW 10 10.00 Fair CLR 44.6 37.4 76% 40 29.82 0.0
03 06:35 NW 9 G 17 10.00 Fair CLR 44.6 39.2 81% 40 29.81 0.0
03 06:15 NW 13 G 17 10.00 Fair CLR 44.6 39.2 81% 39 29.8 0.0
03 05:55 NW 10 G 16 10.00 Fair CLR 46.4 39.2 76% 42 29.8 0.0
03 05:35 NW 13 G 17 10.00 Fair CLR 46.4 39.2 76% 41 29.79 0.0
03 05:15 NW 14 G 20 10.00 Fair CLR 46.4 39.2 76% 41 29.79 0.0
03 04:55 NW 10 G 18 10.00 Fair CLR 48.2 39.2 71% 44 29.79 0.0
03 04:35 NW 14 G 20 10.00 Fair CLR 48.2 39.2 71% 43 29.78 0.0
03 04:15 NW 17 G 23 10.00 Fair CLR 48.2 39.2 71% 42 29.78 0.0
03 03:55 NW 15 G 20 10.00 Fair CLR 50 39.2 67% 45 29.78 0.0
03 03:35 NW 13 G 20 10.00 Fair CLR 51.8 39.2 62% 29.77 0.0
03 03:15 NW 12 G 18 10.00 Fair CLR 51.8 39.2 62% 29.77 0.0
03 02:55 NW 16 10.00 Fair CLR 51.8 39.2 62% 29.76 0.0
03 02:35 NW 13 10.00 Fair CLR 51.8 39.2 62% 29.76 0.0
03 02:15 NW 14 G 18 10.00 Fair CLR 53.6 39.2 58% 29.75 0.0
03 01:55 NW 13 10.00 Fair CLR 53.6 39.2 58% 29.75 0.0
03 01:35 NW 13 G 18 10.00 Fair CLR 53.6 39.2 58% 29.75 0.0
03 01:15 NW 13 G 16 10.00 Fair CLR 55.4 39.2 55% 29.74 0.0
03 00:55 NW 13 G 20 10.00 Fair CLR 57.2 39.2 51% 29.73 0.0
03 00:35 NW 13 10.00 Fair CLR 57.2 39.2 51% 29.72 0.0
03 00:15 NW 14 G 18 10.00 Fair CLR 59 37.4 45% 29.72 0.0
02 23:55 NW 10 10.00 Fair CLR 59 37.4 45% 29.71 0.0
02 23:35 NW 10 10.00 Fair CLR 59 39.2 48% 29.71 0.0
02 23:15 W 8 10.00 Partly Cloudy SCT110 60.8 39.2 45% 29.71 0.0
02 22:55 Calm 10.00 Mostly Cloudy BKN110 62.6 39.2 42% 29.71 0.0
02 22:35 W 8 10.00 Mostly Cloudy BKN100 62.6 39.2 42% 29.71 0.0
02 22:15 Calm 10.00 Mostly Cloudy BKN100 62.6 39.2 42% 29.72 0.0
02 21:55 SW 5 10.00 Partly Cloudy SCT100 64.4 39.2 40% 29.72 0.0
02 21:35 Calm 10.00 Partly Cloudy SCT110 64.4 39.2 40% 29.71 0.0
02 21:15 W 3 10.00 Partly Cloudy SCT110 64.4 37.4 37% 29.71 0.0
02 20:55 Calm 10.00 Fair CLR 64.4 35.6 34% 29.72 0.0
02 20:35 Calm 10.00 Mostly Cloudy BKN100 64.4 32 30% 29.73 0.0
02 20:15 Calm 10.00 Overcast OVC090 64.4 32 30% 29.74 0.0
02 19:55 Calm 10.00 Mostly Cloudy BKN090 66.2 30.2 26% 29.74 0.0
02 19:35 Calm 10.00 Mostly Cloudy SCT060 BKN100 64.4 30.2 28% 29.76 0.0
02 19:15 Calm 10.00 Mostly Cloudy BKN110 66.2 28.4 24% 29.76 0.0
02 18:55 Calm 10.00 Partly Cloudy SCT110 66.2 28.4 24% 29.77 0.0
02 18:35 Calm 10.00 Mostly Cloudy BKN110 66.2 28.4 24% 29.78 0.0
02 18:15 SW 3 10.00 Partly Cloudy SCT110 68 26.6 21% 29.8 0.0
02 17:55 SW 8 G 18 10.00 Partly Cloudy SCT110 68 28.4 23% 29.81 0.0
02 17:35 SW 14 G 21 10.00 Fair CLR 68 28.4 23% 29.82 0.0
02 17:15 SW 3 G 17 10.00 Partly Cloudy SCT110 68 28.4 23% 29.83 0.0
02 16:55 SW 9 G 20 10.00 Partly Cloudy SCT110 68 28.4 23% 29.84 0.0
02 16:35 SW 16 G 22 10.00 Fair CLR 69.8 28.4 21% 29.85 0.0
02 16:15 SW 13 G 21 10.00 Fair CLR 69.8 28.4 21% 29.85 0.0
02 15:55 SW 13 G 25 10.00 Fair CLR 69.8 28.4 21% 29.87 0.0
02 15:35 W 14 G 21 10.00 Fair CLR 66.2 28.4 24% 29.88 0.0
02 15:15 W 15 G 25 10.00 Fair CLR 66.2 30.2 26% 29.89 0.0
02 14:55 SW 16 G 22 10.00 Fair CLR 68 28.4 23% 29.89 0.0
02 14:35 SW 17 G 25 10.00 Fair CLR 69.8 28.4 21% 29.9 0.0
02 14:15 W 14 G 21 10.00 Fair CLR 68 28.4 23% 29.91 0.0
02 13:55 W 14 G 23 10.00 Fair CLR 68 30.2 24% 29.92 0.0
02 13:35 W 14 G 23 10.00 Fair CLR 66.2 30.2 26% 29.93 0.0
02 13:15 W 15 G 24 10.00 Fair CLR 66.2 30.2 26% 29.94 0.0
02 12:55 W 17 G 28 10.00 Fair CLR 66.2 30.2 26% 29.94 0.0
02 12:35 W 15 G 23 10.00 Partly Cloudy SCT100 66.2 28.4 24% 29.95 0.0
02 12:15 W 12 G 25 10.00 Partly Cloudy SCT100 66.2 30.2 26% 29.96 0.0
02 11:55 W 12 G 22 10.00 Partly Cloudy SCT100 64.4 30.2 28% 29.97 0.0
02 11:35 W 16 G 23 10.00 Partly Cloudy SCT100 64.4 32 30% 29.98 0.0
02 11:15 W 16 G 22 10.00 Fair CLR 64.4 32 30% 29.99 0.0
02 10:55 W 13 G 17 10.00 Fair CLR 62.6 33.8 34% 30 0.0
02 10:35 SW 7 G 16 10.00 Fair CLR 60.8 33.8 36% 30 0.0
02 10:15 Calm 10.00 Fair CLR 59 33.8 39% 30.01 0.0
02 09:55 Calm 10.00 Fair CLR 57.2 33.8 41% 30.02 0.0
02 09:35 Calm 10.00 Fair CLR 55.4 33.8 44% 30.02 0.0
02 09:15 Calm 10.00 Fair CLR 53.6 33.8 47% 30.03 0.0
02 08:55 Calm 10.00 Fair CLR 50 33.8 54% 30.04 0.0
02 08:35 Calm 10.00 Fair CLR 46.4 33.8 62% 30.04 0.0
02 08:15 Calm 10.00 Fair CLR 42.8 32 66% 30.05 0.0
02 07:55 Calm 10.00 Fair CLR 41 30.2 66% 30.05 0.0
02 07:35 Calm 10.00 Fair CLR 39.2 28.4 65% 30.05 0.0
02 07:15 Calm 10.00 Fair CLR 37.4 30.2 75% 30.06 0.0
02 06:55 Calm 10.00 Fair CLR 35.6 28.4 75% 30.06 0.0
02 06:35 Calm 10.00 Fair CLR 35.6 28.4 75% 30.06 0.0
02 06:15 Calm 10.00 Fair CLR 35.6 28.4 75% 30.07 0.0
02 05:55 Calm 10.00 Fair CLR 35.6 28.4 75% 30.07 0.0
02 05:35 Calm 10.00 Fair CLR 35.6 28.4 75% 30.07 0.0
02 05:15 Calm 10.00 Fair CLR 35.6 28.4 75% 30.08 0.0
02 04:55 Calm 10.00 Fair CLR 37.4 28.4 70% 30.08 0.0
02 04:35 Calm 10.00 Fair CLR 35.6 26.6 70% 30.09 0.0
02 04:15 Calm 10.00 Fair CLR 37.4 26.6 65% 30.09 0.0
02 03:55 Calm 10.00 Fair CLR 35.6 26.6 70% 30.09 0.0
02 03:35 Calm 10.00 Fair CLR 37.4 26.6 65% 30.09 0.0
02 03:15 Calm 10.00 Fair CLR 37.4 26.6 65% 30.09 0.0
02 02:55 Calm 10.00 Fair CLR 37.4 26.6 65% 30.1 0.0
02 02:35 Calm 10.00 Fair CLR 37.4 26.6 65% 30.09 0.0
02 02:15 Calm 10.00 Fair CLR 39.2 26.6 61% 30.1 0.0
02 01:55 Calm 10.00 Fair CLR 39.2 28.4 65% 30.11 0.0
02 01:35 Calm 10.00 Fair CLR 39.2 28.4 65% 30.11 0.0
02 01:15 Calm 10.00 Fair CLR 39.2 28.4 65% 30.11 0.0
02 00:55 Calm 10.00 Fair CLR 39.2 28.4 65% 30.11 0.0
02 00:35 Calm 10.00 Fair CLR 39.2 28.4 65% 30.11 0.0
02 00:15 Calm 10.00 Fair CLR 41 28.4 61% 30.11 0.0
01 23:55 Calm 10.00 Fair CLR 41 28.4 61% 30.12 0.0
01 23:35 Calm 10.00 Fair CLR 42.8 30.2 61% 30.12 0.0
01 23:15 Calm 10.00 Fair CLR 42.8 28.4 57% 30.12 0.0
01 22:55 Calm 10.00 Fair CLR 44.6 28.4 53% 30.12 0.0
01 22:35 Calm 10.00 Fair CLR 42.8 26.6 53% 30.12 0.0
01 22:15 Calm 10.00 Fair CLR 44.6 26.6 49% 30.12 0.0
01 21:55 Calm 10.00 Fair CLR 44.6 26.6 49% 30.12 0.0
01 21:35 Calm 10.00 Fair CLR 44.6 28.4 53% 30.12 0.0
01 21:15 Calm 10.00 Fair CLR 46.4 28.4 50% 30.11 0.0
01 20:55 Calm 10.00 Fair CLR 46.4 26.6 46% 30.11 0.0
01 20:35 Calm 10.00 Fair CLR 48.2 26.6 43% 30.11 0.0
01 20:15 Calm 10.00 Fair CLR 48.2 26.6 43% 30.11 0.0
01 19:55 Calm 10.00 Fair CLR 51.8 26.6 38% 30.1 0.0
01 19:35 Calm 10.00 Fair CLR 51.8 24.8 35% 30.11 0.0
01 19:15 Calm 10.00 Fair CLR 51.8 26.6 38% 30.11 0.0
01 18:55 N 6 G 10 10.00 Fair CLR 51.8 26.6 38% 30.1 0.0
01 18:35 Calm 10.00 Fair CLR 51.8 26.6 38% 30.11 0.0
01 18:15 NW 5 10.00 Fair CLR 51.8 26.6 38% 30.1 0.0
01 17:55 N 6 10.00 Fair CLR 53.6 24.8 33% 30.11 0.0
01 17:35 N 5 10.00 Fair CLR 53.6 26.6 35% 30.11 0.0
01 17:15 Calm 10.00 Fair CLR 51.8 26.6 38% 30.11 0.0
01 16:55 NW 12 10.00 Partly Cloudy SCT055 51.8 26.6 38% 30.11 0.0
01 16:35 Calm 10.00 Partly Cloudy SCT055 51.8 26.6 38% 30.11 0.0
01 16:15 Calm 10.00 Fair CLR 51.8 28.4 41% 30.12 0.0
01 15:55 Calm 10.00 Partly Cloudy SCT055 51.8 26.6 38% 30.12 0.0
01 15:35 NW 9 10.00 Mostly Cloudy BKN055 51.8 28.4 41% 30.13 0.0
01 15:15 N 9 10.00 Mostly Cloudy BKN055 50 28.4 43% 47 30.13 0.0
01 14:55 Calm 10.00 Partly Cloudy SCT055 50 26.6 40% 30.13 0.0
01 14:35 Calm 10.00 Mostly Cloudy BKN055 50 28.4 43% 30.14 0.0
Date Time (cdt) Wind (mph) Vis. (mi.) Weather Sky Cond. Air Dwpt Max. Min. Relative Humidity Wind Chill (°F) Heat Index (°F) altimeter (in) sea level (mb) 1 hr 3 hr 6 hr
6 hour
Temperature (ºF) Pressure Precipitation (in)